Wilson Heron — 9HJW9 — position and weather

sailwx.info

Track history (hours):
 
Tides and Currents Weather Stations Pressure Air Temp Water Temp Dewpoint Dewpoint Depression Visibility Wind Speed Wind Dir Waves Ship Positions

Wilson Heron

Last reported at 2015-Jul-04 05:16 UTC. Time now 2015-Jul-05 06:06 UTC.
Position N 58°40' E 005°13'.

Length 91 m; draft 6 m.

Type: Cargo ship. MMSI: 249075000.

Date/timePositionNaut miles runAvg speedWind from/ knotsBaromVisibWave heightAir tempDewpointWater temp
2015-Jul-04 05:16N 58°40' E 005°13'19 8.8
2015-Jul-04 03:07N 58°59' E 005°18'5 9.5
2015-Jul-04 02:33N 59°04' E 005°20'10 9.9
2015-Jul-04 01:31N 59°14' E 005°20'  
2015-Jun-26 18:08N 59°22' E 004°34'6 9.9
2015-Jun-26 17:32N 59°16' E 004°35'8 8.2
2015-Jun-26 16:33N 59°08' E 004°36'9 8.5
2015-Jun-26 15:33N 58°59' E 004°37'278 9.5
2015-Jun-25 10:20N 54°21' E 005°06'8 9.8
2015-Jun-25 09:34N 54°14' E 005°07'10 9.5
2015-Jun-25 08:32N 54°04' E 005°06'9 9.5
2015-Jun-25 07:34N 53°55' E 005°01'1010.0
2015-Jun-25 06:34N 53°46' E 004°55'1010.2
2015-Jun-25 05:34N 53°36' E 004°50'9 8.9
2015-Jun-25 04:34N 53°28' E 004°44'9 9.1
2015-Jun-25 03:33N 53°20' E 004°38'9 9.3
2015-Jun-25 02:34N 53°11' E 004°32'9 8.9
2015-Jun-25 01:33N 53°03' E 004°25'1010.1
2015-Jun-25 00:33N 52°54' E 004°17'1010.6
2015-Jun-24 23:34N 52°45' E 004°09'9 8.9
2015-Jun-24 22:33N 52°37' E 004°16'1010.1
2015-Jun-24 21:33N 52°29' E 004°27'6 6.1
2015-Jun-24 20:33N 52°28' E 004°37'2 2.1
2015-Jun-24 19:34N 52°28' E 004°40'5 5.1
2015-Jun-24 18:30N 52°24' E 004°47'0 0.0
2015-Jun-24 17:33N 52°24' E 004°47'0 0.0
2015-Jun-24 16:33N 52°24' E 004°47'0 0.0
2015-Jun-24 15:33N 52°24' E 004°47'0 0.0
2015-Jun-24 14:33N 52°24' E 004°47'0 0.0
2015-Jun-24 13:33N 52°24' E 004°47'0 0.0
2015-Jun-24 12:33N 52°24' E 004°47'0 0.0
2015-Jun-24 11:33N 52°24' E 004°47'0 0.0
2015-Jun-24 10:33N 52°24' E 004°47'0 0.0
2015-Jun-24 09:33N 52°24' E 004°47'0 0.0
2015-Jun-24 08:33N 52°24' E 004°47'0 0.0
2015-Jun-24 07:33N 52°24' E 004°47'0 0.0
2015-Jun-24 06:33N 52°24' E 004°47'0 0.0
2015-Jun-24 05:33N 52°24' E 004°47'  
Track history (hours):
 
Tides and Currents Weather Stations Pressure Air Temp Water Temp Dewpoint Dewpoint Depression Visibility Wind Speed Wind Dir Waves Ship Positions

Wilson Heron

Last reported at 2015-Jul-04 05:16 UTC. Time now 2015-Jul-05 06:06 UTC.
Position N 58°40' E 005°13'.

Length 91 m; draft 6 m.

Type: Cargo ship. MMSI: 249075000.

Date/timePositionNaut miles runAvg speedWind from/ knotsBaromVisibWave heightAir tempDewpointWater temp
2015-Jul-04 05:16N 58°40' E 005°13'19 8.8
2015-Jul-04 03:07N 58°59' E 005°18'5 9.5
2015-Jul-04 02:33N 59°04' E 005°20'10 9.9
2015-Jul-04 01:31N 59°14' E 005°20'  
2015-Jun-26 18:08N 59°22' E 004°34'6 9.9
2015-Jun-26 17:32N 59°16' E 004°35'8 8.2
2015-Jun-26 16:33N 59°08' E 004°36'9 8.5
2015-Jun-26 15:33N 58°59' E 004°37'278 9.5
2015-Jun-25 10:20N 54°21' E 005°06'8 9.8
2015-Jun-25 09:34N 54°14' E 005°07'10 9.5
2015-Jun-25 08:32N 54°04' E 005°06'9 9.5
2015-Jun-25 07:34N 53°55' E 005°01'1010.0
2015-Jun-25 06:34N 53°46' E 004°55'1010.2
2015-Jun-25 05:34N 53°36' E 004°50'9 8.9
2015-Jun-25 04:34N 53°28' E 004°44'9 9.1
2015-Jun-25 03:33N 53°20' E 004°38'9 9.3
2015-Jun-25 02:34N 53°11' E 004°32'9 8.9
2015-Jun-25 01:33N 53°03' E 004°25'1010.1
2015-Jun-25 00:33N 52°54' E 004°17'1010.6
2015-Jun-24 23:34N 52°45' E 004°09'9 8.9
2015-Jun-24 22:33N 52°37' E 004°16'1010.1
2015-Jun-24 21:33N 52°29' E 004°27'6 6.1
2015-Jun-24 20:33N 52°28' E 004°37'2 2.1
2015-Jun-24 19:34N 52°28' E 004°40'5 5.1
2015-Jun-24 18:30N 52°24' E 004°47'0 0.0
2015-Jun-24 17:33N 52°24' E 004°47'0 0.0
2015-Jun-24 16:33N 52°24' E 004°47'0 0.0
2015-Jun-24 15:33N 52°24' E 004°47'0 0.0
2015-Jun-24 14:33N 52°24' E 004°47'0 0.0
2015-Jun-24 13:33N 52°24' E 004°47'0 0.0
2015-Jun-24 12:33N 52°24' E 004°47'0 0.0
2015-Jun-24 11:33N 52°24' E 004°47'0 0.0
2015-Jun-24 10:33N 52°24' E 004°47'0 0.0
2015-Jun-24 09:33N 52°24' E 004°47'0 0.0
2015-Jun-24 08:33N 52°24' E 004°47'0 0.0
2015-Jun-24 07:33N 52°24' E 004°47'0 0.0
2015-Jun-24 06:33N 52°24' E 004°47'0 0.0
2015-Jun-24 05:33N 52°24' E 004°47'  

Dump ship's entire track history